sensor_id;sensor_type;location;lat;lon;timestamp;P1;durP1;ratioP1;P2;durP2;ratioP2
14276;SDS011;7222;57.346;12.150;2022-08-03T00:01:05;22.57;;;15.23;;
14276;SDS011;7222;57.346;12.150;2022-08-03T00:03:32;24.20;;;15.33;;
14276;SDS011;7222;57.346;12.150;2022-08-03T00:05:59;21.73;;;14.07;;
14276;SDS011;7222;57.346;12.150;2022-08-03T00:08:28;22.43;;;13.70;;
14276;SDS011;7222;57.346;12.150;2022-08-03T00:10:55;21.33;;;14.37;;
14276;SDS011;7222;57.346;12.150;2022-08-03T00:13:22;20.57;;;14.03;;
14276;SDS011;7222;57.346;12.150;2022-08-03T00:15:50;20.03;;;14.57;;
14276;SDS011;7222;57.346;12.150;2022-08-03T00:18:17;20.53;;;15.43;;
14276;SDS011;7222;57.346;12.150;2022-08-03T00:20:45;26.23;;;14.70;;
14276;SDS011;7222;57.346;12.150;2022-08-03T00:23:12;24.67;;;14.60;;
14276;SDS011;7222;57.346;12.150;2022-08-03T00:25:40;22.10;;;15.67;;
14276;SDS011;7222;57.346;12.150;2022-08-03T00:28:07;20.67;;;15.60;;
14276;SDS011;7222;57.346;12.150;2022-08-03T00:30:35;26.53;;;15.53;;
14276;SDS011;7222;57.346;12.150;2022-08-03T00:33:04;20.53;;;14.63;;
14276;SDS011;7222;57.346;12.150;2022-08-03T00:35:31;22.00;;;14.77;;
14276;SDS011;7222;57.346;12.150;2022-08-03T00:37:58;20.07;;;15.13;;
14276;SDS011;7222;57.346;12.150;2022-08-03T00:40:25;22.20;;;14.87;;
14276;SDS011;7222;57.346;12.150;2022-08-03T00:42:55;20.60;;;14.10;;
14276;SDS011;7222;57.346;12.150;2022-08-03T00:45:24;22.33;;;14.80;;
14276;SDS011;7222;57.346;12.150;2022-08-03T00:47:52;21.93;;;14.40;;
14276;SDS011;7222;57.346;12.150;2022-08-03T00:50:20;19.43;;;14.03;;
14276;SDS011;7222;57.346;12.150;2022-08-03T00:52:48;21.53;;;14.33;;
14276;SDS011;7222;57.346;12.150;2022-08-03T00:55:18;21.73;;;14.97;;
14276;SDS011;7222;57.346;12.150;2022-08-03T00:57:45;21.70;;;15.83;;
14276;SDS011;7222;57.346;12.150;2022-08-03T01:00:15;21.70;;;15.50;;
14276;SDS011;7222;57.346;12.150;2022-08-03T01:02:46;19.77;;;15.30;;
14276;SDS011;7222;57.346;12.150;2022-08-03T01:05:13;25.23;;;14.13;;
14276;SDS011;7222;57.346;12.150;2022-08-03T01:07:44;20.80;;;14.80;;
14276;SDS011;7222;57.346;12.150;2022-08-03T01:10:31;21.73;;;15.20;;
14276;SDS011;7222;57.346;12.150;2022-08-03T01:13:08;22.87;;;13.30;;
14276;SDS011;7222;57.346;12.150;2022-08-03T01:15:55;20.00;;;15.00;;
14276;SDS011;7222;57.346;12.150;2022-08-03T01:18:30;18.00;;;13.57;;
14276;SDS011;7222;57.346;12.150;2022-08-03T01:21:03;21.77;;;14.90;;
14276;SDS011;7222;57.346;12.150;2022-08-03T01:23:40;18.03;;;14.47;;
14276;SDS011;7222;57.346;12.150;2022-08-03T01:32:36;23.17;;;16.80;;
14276;SDS011;7222;57.346;12.150;2022-08-03T01:35:08;23.20;;;17.07;;
14276;SDS011;7222;57.346;12.150;2022-08-03T01:37:40;22.93;;;15.67;;
14276;SDS011;7222;57.346;12.150;2022-08-03T01:40:11;27.23;;;16.93;;
14276;SDS011;7222;57.346;12.150;2022-08-03T01:42:53;21.90;;;15.67;;
14276;SDS011;7222;57.346;12.150;2022-08-03T01:45:22;20.17;;;14.97;;
14276;SDS011;7222;57.346;12.150;2022-08-03T01:47:51;21.93;;;15.00;;
14276;SDS011;7222;57.346;12.150;2022-08-03T01:50:21;25.23;;;15.17;;
14276;SDS011;7222;57.346;12.150;2022-08-03T01:52:52;22.60;;;16.20;;
14276;SDS011;7222;57.346;12.150;2022-08-03T01:55:21;22.07;;;16.37;;
14276;SDS011;7222;57.346;12.150;2022-08-03T01:57:51;23.70;;;17.17;;
14276;SDS011;7222;57.346;12.150;2022-08-03T02:00:20;23.10;;;17.97;;
14276;SDS011;7222;57.346;12.150;2022-08-03T02:02:49;27.87;;;19.47;;
14276;SDS011;7222;57.346;12.150;2022-08-03T02:05:19;26.20;;;19.30;;
14276;SDS011;7222;57.346;12.150;2022-08-03T02:07:47;24.67;;;19.03;;
14276;SDS011;7222;57.346;12.150;2022-08-03T02:10:15;25.20;;;17.57;;
14276;SDS011;7222;57.346;12.150;2022-08-03T02:12:45;25.70;;;17.57;;
14276;SDS011;7222;57.346;12.150;2022-08-03T02:15:14;24.00;;;17.77;;
14276;SDS011;7222;57.346;12.150;2022-08-03T02:17:42;23.20;;;17.80;;
14276;SDS011;7222;57.346;12.150;2022-08-03T02:20:13;24.80;;;18.60;;
14276;SDS011;7222;57.346;12.150;2022-08-03T02:22:42;24.37;;;19.00;;
14276;SDS011;7222;57.346;12.150;2022-08-03T02:25:10;23.60;;;19.40;;
14276;SDS011;7222;57.346;12.150;2022-08-03T02:27:39;27.37;;;20.17;;
14276;SDS011;7222;57.346;12.150;2022-08-03T02:30:16;26.57;;;19.97;;
14276;SDS011;7222;57.346;12.150;2022-08-03T02:32:47;27.10;;;19.97;;
14276;SDS011;7222;57.346;12.150;2022-08-03T02:35:18;26.90;;;18.80;;
14276;SDS011;7222;57.346;12.150;2022-08-03T02:37:49;25.63;;;19.43;;
14276;SDS011;7222;57.346;12.150;2022-08-03T02:40:21;24.47;;;17.10;;
14276;SDS011;7222;57.346;12.150;2022-08-03T02:42:50;23.00;;;15.70;;
14276;SDS011;7222;57.346;12.150;2022-08-03T02:45:21;25.63;;;17.27;;
14276;SDS011;7222;57.346;12.150;2022-08-03T02:47:51;25.20;;;17.97;;
14276;SDS011;7222;57.346;12.150;2022-08-03T02:50:24;21.73;;;15.73;;
14276;SDS011;7222;57.346;12.150;2022-08-03T02:52:52;23.53;;;16.17;;
14276;SDS011;7222;57.346;12.150;2022-08-03T02:55:21;25.13;;;17.00;;
14276;SDS011;7222;57.346;12.150;2022-08-03T02:57:50;22.50;;;16.33;;
14276;SDS011;7222;57.346;12.150;2022-08-03T03:00:19;21.60;;;16.73;;
14276;SDS011;7222;57.346;12.150;2022-08-03T03:02:47;22.33;;;16.23;;
14276;SDS011;7222;57.346;12.150;2022-08-03T03:05:15;24.70;;;17.97;;
14276;SDS011;7222;57.346;12.150;2022-08-03T03:07:44;23.37;;;16.17;;
14276;SDS011;7222;57.346;12.150;2022-08-03T03:10:12;22.40;;;16.10;;
14276;SDS011;7222;57.346;12.150;2022-08-03T03:12:39;26.43;;;17.07;;
14276;SDS011;7222;57.346;12.150;2022-08-03T03:15:08;24.97;;;18.37;;
14276;SDS011;7222;57.346;12.150;2022-08-03T03:17:36;23.80;;;16.70;;
14276;SDS011;7222;57.346;12.150;2022-08-03T03:20:05;27.57;;;17.93;;
14276;SDS011;7222;57.346;12.150;2022-08-03T03:22:34;25.70;;;18.13;;
14276;SDS011;7222;57.346;12.150;2022-08-03T03:25:04;26.07;;;17.43;;
14276;SDS011;7222;57.346;12.150;2022-08-03T03:27:33;24.17;;;17.13;;
14276;SDS011;7222;57.346;12.150;2022-08-03T03:30:00;23.30;;;17.63;;
14276;SDS011;7222;57.346;12.150;2022-08-03T03:32:28;21.77;;;17.07;;
14276;SDS011;7222;57.346;12.150;2022-08-03T03:34:55;25.57;;;17.93;;
14276;SDS011;7222;57.346;12.150;2022-08-03T03:37:23;28.87;;;17.47;;
14276;SDS011;7222;57.346;12.150;2022-08-03T03:39:51;28.37;;;17.63;;
14276;SDS011;7222;57.346;12.150;2022-08-03T03:42:20;26.20;;;17.73;;
14276;SDS011;7222;57.346;12.150;2022-08-03T03:44:48;27.13;;;19.70;;
14276;SDS011;7222;57.346;12.150;2022-08-03T03:47:15;27.90;;;19.47;;
14276;SDS011;7222;57.346;12.150;2022-08-03T03:49:42;24.40;;;16.77;;
14276;SDS011;7222;57.346;12.150;2022-08-03T03:52:10;23.33;;;15.93;;
14276;SDS011;7222;57.346;12.150;2022-08-03T03:54:40;29.53;;;16.87;;
14276;SDS011;7222;57.346;12.150;2022-08-03T03:57:08;24.43;;;16.57;;
14276;SDS011;7222;57.346;12.150;2022-08-03T03:59:37;22.30;;;15.70;;
14276;SDS011;7222;57.346;12.150;2022-08-03T04:02:05;29.63;;;18.23;;
14276;SDS011;7222;57.346;12.150;2022-08-03T04:04:33;28.30;;;17.57;;
14276;SDS011;7222;57.346;12.150;2022-08-03T04:07:18;27.80;;;19.90;;
14276;SDS011;7222;57.346;12.150;2022-08-03T04:10:05;28.07;;;21.20;;
14276;SDS011;7222;57.346;12.150;2022-08-03T04:12:56;27.87;;;19.33;;
14276;SDS011;7222;57.346;12.150;2022-08-03T04:15:26;30.37;;;22.03;;
14276;SDS011;7222;57.346;12.150;2022-08-03T04:18:00;31.90;;;21.07;;
14276;SDS011;7222;57.346;12.150;2022-08-03T04:20:29;36.13;;;23.13;;
14276;SDS011;7222;57.346;12.150;2022-08-03T04:23:00;29.03;;;22.73;;
14276;SDS011;7222;57.346;12.150;2022-08-03T04:25:30;34.50;;;21.70;;
14276;SDS011;7222;57.346;12.150;2022-08-03T04:28:00;28.63;;;20.10;;
14276;SDS011;7222;57.346;12.150;2022-08-03T04:30:30;28.10;;;19.10;;
14276;SDS011;7222;57.346;12.150;2022-08-03T04:33:01;30.00;;;18.20;;
14276;SDS011;7222;57.346;12.150;2022-08-03T04:35:29;27.13;;;19.37;;
14276;SDS011;7222;57.346;12.150;2022-08-03T04:37:59;24.37;;;18.07;;
14276;SDS011;7222;57.346;12.150;2022-08-03T04:40:29;26.10;;;17.07;;
14276;SDS011;7222;57.346;12.150;2022-08-03T04:42:59;19.70;;;15.87;;
14276;SDS011;7222;57.346;12.150;2022-08-03T04:45:27;19.97;;;16.63;;
14276;SDS011;7222;57.346;12.150;2022-08-03T04:47:58;23.97;;;16.77;;
14276;SDS011;7222;57.346;12.150;2022-08-03T04:50:25;24.17;;;15.87;;
14276;SDS011;7222;57.346;12.150;2022-08-03T04:52:53;21.33;;;15.67;;
14276;SDS011;7222;57.346;12.150;2022-08-03T04:55:24;23.43;;;16.60;;
14276;SDS011;7222;57.346;12.150;2022-08-03T04:57:52;20.90;;;16.77;;
14276;SDS011;7222;57.346;12.150;2022-08-03T05:00:20;19.80;;;16.37;;
14276;SDS011;7222;57.346;12.150;2022-08-03T05:02:49;21.93;;;15.90;;
14276;SDS011;7222;57.346;12.150;2022-08-03T05:05:18;24.73;;;15.63;;
14276;SDS011;7222;57.346;12.150;2022-08-03T05:07:45;16.90;;;14.60;;
14276;SDS011;7222;57.346;12.150;2022-08-03T05:10:12;18.20;;;15.07;;
14276;SDS011;7222;57.346;12.150;2022-08-03T05:12:40;19.00;;;13.57;;
14276;SDS011;7222;57.346;12.150;2022-08-03T05:15:08;17.07;;;13.70;;
14276;SDS011;7222;57.346;12.150;2022-08-03T05:17:35;19.53;;;14.60;;
14276;SDS011;7222;57.346;12.150;2022-08-03T05:20:04;18.60;;;14.53;;
14276;SDS011;7222;57.346;12.150;2022-08-03T05:22:32;17.73;;;14.07;;
14276;SDS011;7222;57.346;12.150;2022-08-03T05:25:00;25.37;;;13.23;;
14276;SDS011;7222;57.346;12.150;2022-08-03T05:27:27;18.03;;;13.23;;
14276;SDS011;7222;57.346;12.150;2022-08-03T05:29:54;25.90;;;13.13;;
14276;SDS011;7222;57.346;12.150;2022-08-03T05:32:21;15.50;;;11.90;;
14276;SDS011;7222;57.346;12.150;2022-08-03T05:34:48;15.40;;;12.00;;
14276;SDS011;7222;57.346;12.150;2022-08-03T05:37:17;18.13;;;11.80;;
14276;SDS011;7222;57.346;12.150;2022-08-03T05:39:44;16.10;;;11.87;;
14276;SDS011;7222;57.346;12.150;2022-08-03T05:42:13;17.63;;;11.87;;
14276;SDS011;7222;57.346;12.150;2022-08-03T05:44:41;14.37;;;12.73;;
14276;SDS011;7222;57.346;12.150;2022-08-03T05:47:08;19.20;;;11.50;;
14276;SDS011;7222;57.346;12.150;2022-08-03T05:49:35;14.87;;;11.07;;
14276;SDS011;7222;57.346;12.150;2022-08-03T05:52:03;15.40;;;11.87;;
14276;SDS011;7222;57.346;12.150;2022-08-03T05:54:31;14.80;;;11.20;;
14276;SDS011;7222;57.346;12.150;2022-08-03T05:56:59;13.03;;;9.80;;
14276;SDS011;7222;57.346;12.150;2022-08-03T05:59:26;18.30;;;11.10;;
14276;SDS011;7222;57.346;12.150;2022-08-03T06:01:53;15.57;;;11.00;;
14276;SDS011;7222;57.346;12.150;2022-08-03T06:04:20;15.37;;;10.53;;
14276;SDS011;7222;57.346;12.150;2022-08-03T06:06:47;12.63;;;9.90;;
14276;SDS011;7222;57.346;12.150;2022-08-03T06:09:15;11.60;;;9.87;;
14276;SDS011;7222;57.346;12.150;2022-08-03T06:11:44;15.73;;;10.20;;
14276;SDS011;7222;57.346;12.150;2022-08-03T06:14:11;15.97;;;9.70;;
14276;SDS011;7222;57.346;12.150;2022-08-03T06:16:38;9.87;;;8.80;;
14276;SDS011;7222;57.346;12.150;2022-08-03T06:19:05;12.47;;;8.37;;
14276;SDS011;7222;57.346;12.150;2022-08-03T06:21:32;9.83;;;8.27;;
14276;SDS011;7222;57.346;12.150;2022-08-03T06:23:59;12.03;;;7.53;;
14276;SDS011;7222;57.346;12.150;2022-08-03T06:26:27;11.93;;;7.17;;
14276;SDS011;7222;57.346;12.150;2022-08-03T06:28:55;7.27;;;6.33;;
14276;SDS011;7222;57.346;12.150;2022-08-03T06:31:23;11.40;;;8.03;;
14276;SDS011;7222;57.346;12.150;2022-08-03T06:33:53;10.70;;;6.93;;
14276;SDS011;7222;57.346;12.150;2022-08-03T06:36:20;11.70;;;6.87;;
14276;SDS011;7222;57.346;12.150;2022-08-03T06:38:47;11.60;;;7.23;;
14276;SDS011;7222;57.346;12.150;2022-08-03T06:41:15;13.27;;;7.50;;
14276;SDS011;7222;57.346;12.150;2022-08-03T06:43:57;10.97;;;7.60;;
14276;SDS011;7222;57.346;12.150;2022-08-03T06:46:24;11.77;;;7.20;;
14276;SDS011;7222;57.346;12.150;2022-08-03T06:48:52;13.40;;;8.10;;
14276;SDS011;7222;57.346;12.150;2022-08-03T06:51:20;14.70;;;7.90;;
14276;SDS011;7222;57.346;12.150;2022-08-03T06:53:47;13.67;;;6.57;;
14276;SDS011;7222;57.346;12.150;2022-08-03T06:56:15;9.80;;;6.53;;
14276;SDS011;7222;57.346;12.150;2022-08-03T06:58:42;8.63;;;7.27;;
14276;SDS011;7222;57.346;12.150;2022-08-03T07:01:12;14.70;;;7.30;;
14276;SDS011;7222;57.346;12.150;2022-08-03T07:03:39;11.87;;;6.97;;
14276;SDS011;7222;57.346;12.150;2022-08-03T07:06:06;14.10;;;7.73;;
14276;SDS011;7222;57.346;12.150;2022-08-03T07:08:34;11.67;;;7.90;;
14276;SDS011;7222;57.346;12.150;2022-08-03T07:11:15;10.63;;;7.33;;
14276;SDS011;7222;57.346;12.150;2022-08-03T07:13:42;11.60;;;8.17;;
14276;SDS011;7222;57.346;12.150;2022-08-03T07:16:09;9.23;;;7.30;;
14276;SDS011;7222;57.346;12.150;2022-08-03T07:18:38;11.83;;;7.33;;
14276;SDS011;7222;57.346;12.150;2022-08-03T07:21:05;10.50;;;8.03;;
14276;SDS011;7222;57.346;12.150;2022-08-03T07:23:35;9.67;;;7.47;;
14276;SDS011;7222;57.346;12.150;2022-08-03T07:26:02;8.40;;;7.03;;
14276;SDS011;7222;57.346;12.150;2022-08-03T07:28:29;10.13;;;6.33;;
14276;SDS011;7222;57.346;12.150;2022-08-03T07:30:56;11.37;;;7.07;;
14276;SDS011;7222;57.346;12.150;2022-08-03T07:33:24;9.47;;;7.10;;
14276;SDS011;7222;57.346;12.150;2022-08-03T07:35:52;10.00;;;6.10;;
14276;SDS011;7222;57.346;12.150;2022-08-03T07:38:19;10.03;;;6.20;;
14276;SDS011;7222;57.346;12.150;2022-08-03T07:40:47;9.13;;;6.33;;
14276;SDS011;7222;57.346;12.150;2022-08-03T07:43:14;9.23;;;5.73;;
14276;SDS011;7222;57.346;12.150;2022-08-03T07:45:41;7.83;;;7.03;;
14276;SDS011;7222;57.346;12.150;2022-08-03T07:48:08;10.73;;;6.17;;
14276;SDS011;7222;57.346;12.150;2022-08-03T07:50:36;10.97;;;5.97;;
14276;SDS011;7222;57.346;12.150;2022-08-03T07:53:04;8.40;;;6.00;;
14276;SDS011;7222;57.346;12.150;2022-08-03T07:55:31;11.90;;;6.10;;
14276;SDS011;7222;57.346;12.150;2022-08-03T07:58:03;13.17;;;6.23;;
14276;SDS011;7222;57.346;12.150;2022-08-03T08:00:31;9.57;;;5.80;;
14276;SDS011;7222;57.346;12.150;2022-08-03T08:02:58;9.23;;;5.83;;
14276;SDS011;7222;57.346;12.150;2022-08-03T08:05:26;8.50;;;6.03;;
14276;SDS011;7222;57.346;12.150;2022-08-03T08:11:29;12.17;;;5.67;;
14276;SDS011;7222;57.346;12.150;2022-08-03T08:13:56;9.80;;;6.00;;
14276;SDS011;7222;57.346;12.150;2022-08-03T08:16:26;8.23;;;5.30;;
14276;SDS011;7222;57.346;12.150;2022-08-03T08:18:53;7.40;;;6.33;;
14276;SDS011;7222;57.346;12.150;2022-08-03T08:21:21;9.80;;;7.00;;
14276;SDS011;7222;57.346;12.150;2022-08-03T08:23:48;8.30;;;6.37;;
14276;SDS011;7222;57.346;12.150;2022-08-03T08:26:15;8.20;;;5.90;;
14276;SDS011;7222;57.346;12.150;2022-08-03T08:28:43;9.07;;;5.70;;
14276;SDS011;7222;57.346;12.150;2022-08-03T08:31:10;10.50;;;6.23;;
14276;SDS011;7222;57.346;12.150;2022-08-03T08:33:37;7.67;;;6.13;;
14276;SDS011;7222;57.346;12.150;2022-08-03T08:36:05;7.90;;;5.53;;
14276;SDS011;7222;57.346;12.150;2022-08-03T08:38:33;9.23;;;6.60;;
14276;SDS011;7222;57.346;12.150;2022-08-03T08:41:00;6.63;;;5.80;;
14276;SDS011;7222;57.346;12.150;2022-08-03T08:43:27;9.07;;;5.83;;
14276;SDS011;7222;57.346;12.150;2022-08-03T08:45:56;9.53;;;5.97;;
14276;SDS011;7222;57.346;12.150;2022-08-03T08:48:25;8.10;;;6.10;;
14276;SDS011;7222;57.346;12.150;2022-08-03T08:50:53;9.20;;;6.00;;
14276;SDS011;7222;57.346;12.150;2022-08-03T08:53:22;8.20;;;5.97;;
14276;SDS011;7222;57.346;12.150;2022-08-03T08:55:54;9.80;;;5.83;;
14276;SDS011;7222;57.346;12.150;2022-08-03T08:58:25;8.67;;;6.20;;
14276;SDS011;7222;57.346;12.150;2022-08-03T09:00:55;10.97;;;6.13;;
14276;SDS011;7222;57.346;12.150;2022-08-03T09:03:23;6.50;;;5.73;;
14276;SDS011;7222;57.346;12.150;2022-08-03T09:05:50;9.43;;;6.77;;
14276;SDS011;7222;57.346;12.150;2022-08-03T09:08:18;8.50;;;6.37;;
14276;SDS011;7222;57.346;12.150;2022-08-03T09:10:45;7.47;;;5.90;;
14276;SDS011;7222;57.346;12.150;2022-08-03T09:13:13;10.20;;;6.33;;
14276;SDS011;7222;57.346;12.150;2022-08-03T09:15:40;8.73;;;7.27;;
14276;SDS011;7222;57.346;12.150;2022-08-03T09:18:09;9.97;;;6.97;;
14276;SDS011;7222;57.346;12.150;2022-08-03T09:20:37;8.27;;;7.40;;
14276;SDS011;7222;57.346;12.150;2022-08-03T09:23:06;12.43;;;6.93;;
14276;SDS011;7222;57.346;12.150;2022-08-03T09:25:35;8.80;;;7.03;;
14276;SDS011;7222;57.346;12.150;2022-08-03T09:28:04;8.93;;;7.13;;
14276;SDS011;7222;57.346;12.150;2022-08-03T09:30:33;9.40;;;7.23;;
14276;SDS011;7222;57.346;12.150;2022-08-03T09:33:01;10.40;;;7.47;;
14276;SDS011;7222;57.346;12.150;2022-08-03T09:35:31;9.43;;;7.70;;
14276;SDS011;7222;57.346;12.150;2022-08-03T09:38:08;9.53;;;6.30;;
14276;SDS011;7222;57.346;12.150;2022-08-03T09:40:37;9.47;;;6.30;;
14276;SDS011;7222;57.346;12.150;2022-08-03T09:43:04;7.47;;;6.60;;
14276;SDS011;7222;57.346;12.150;2022-08-03T09:45:32;13.07;;;7.23;;
14276;SDS011;7222;57.346;12.150;2022-08-03T09:50:50;8.97;;;6.97;;
14276;SDS011;7222;57.346;12.150;2022-08-03T09:53:18;7.70;;;6.60;;
14276;SDS011;7222;57.346;12.150;2022-08-03T09:55:49;10.33;;;7.90;;
14276;SDS011;7222;57.346;12.150;2022-08-03T09:58:21;7.63;;;6.87;;
14276;SDS011;7222;57.346;12.150;2022-08-03T10:00:53;9.27;;;6.77;;
14276;SDS011;7222;57.346;12.150;2022-08-03T10:03:23;9.70;;;6.57;;
14276;SDS011;7222;57.346;12.150;2022-08-03T10:05:52;9.20;;;6.57;;
14276;SDS011;7222;57.346;12.150;2022-08-03T10:08:20;9.80;;;6.90;;
14276;SDS011;7222;57.346;12.150;2022-08-03T10:10:47;10.73;;;7.20;;
14276;SDS011;7222;57.346;12.150;2022-08-03T10:13:19;8.47;;;7.37;;
14276;SDS011;7222;57.346;12.150;2022-08-03T10:15:47;8.60;;;7.17;;
14276;SDS011;7222;57.346;12.150;2022-08-03T10:18:14;8.87;;;7.83;;
14276;SDS011;7222;57.346;12.150;2022-08-03T10:20:43;10.27;;;7.90;;
14276;SDS011;7222;57.346;12.150;2022-08-03T10:23:16;8.10;;;7.07;;
14276;SDS011;7222;57.346;12.150;2022-08-03T10:25:45;9.97;;;6.97;;
14276;SDS011;7222;57.346;12.150;2022-08-03T10:28:15;11.57;;;7.17;;
14276;SDS011;7222;57.346;12.150;2022-08-03T10:30:46;9.87;;;7.50;;
14276;SDS011;7222;57.346;12.150;2022-08-03T10:33:17;11.20;;;7.60;;
14276;SDS011;7222;57.346;12.150;2022-08-03T10:35:46;12.90;;;8.30;;
14276;SDS011;7222;57.346;12.150;2022-08-03T10:38:20;12.70;;;8.40;;
14276;SDS011;7222;57.346;12.150;2022-08-03T10:40:52;8.07;;;7.27;;
14276;SDS011;7222;57.346;12.150;2022-08-03T10:43:21;9.97;;;6.90;;
14276;SDS011;7222;57.346;12.150;2022-08-03T10:45:51;13.40;;;8.23;;
14276;SDS011;7222;57.346;12.150;2022-08-03T10:48:18;12.20;;;7.30;;
14276;SDS011;7222;57.346;12.150;2022-08-03T10:50:47;10.00;;;7.60;;
14276;SDS011;7222;57.346;12.150;2022-08-03T10:53:14;9.63;;;7.57;;
14276;SDS011;7222;57.346;12.150;2022-08-03T10:55:44;7.90;;;6.63;;
14276;SDS011;7222;57.346;12.150;2022-08-03T10:58:45;10.10;;;7.00;;
14276;SDS011;7222;57.346;12.150;2022-08-03T11:01:13;12.20;;;7.00;;
14276;SDS011;7222;57.346;12.150;2022-08-03T11:06:45;15.03;;;9.40;;
14276;SDS011;7222;57.346;12.150;2022-08-03T11:09:13;17.87;;;10.60;;
14276;SDS011;7222;57.346;12.150;2022-08-03T11:11:46;14.17;;;9.80;;
14276;SDS011;7222;57.346;12.150;2022-08-03T11:14:14;17.00;;;10.40;;
14276;SDS011;7222;57.346;12.150;2022-08-03T11:16:43;18.33;;;10.23;;
14276;SDS011;7222;57.346;12.150;2022-08-03T11:19:12;21.93;;;12.60;;
14276;SDS011;7222;57.346;12.150;2022-08-03T11:21:53;17.17;;;11.47;;
14276;SDS011;7222;57.346;12.150;2022-08-03T11:27:29;10.83;;;8.60;;
14276;SDS011;7222;57.346;12.150;2022-08-03T11:29:58;14.73;;;12.73;;
14276;SDS011;7222;57.346;12.150;2022-08-03T11:35:26;14.97;;;10.83;;
14276;SDS011;7222;57.346;12.150;2022-08-03T11:38:04;15.87;;;12.17;;
14276;SDS011;7222;57.346;12.150;2022-08-03T11:40:37;15.80;;;12.47;;
14276;SDS011;7222;57.346;12.150;2022-08-03T11:43:07;15.13;;;12.33;;
14276;SDS011;7222;57.346;12.150;2022-08-03T11:45:36;14.73;;;12.17;;
14276;SDS011;7222;57.346;12.150;2022-08-03T11:48:13;15.50;;;11.93;;
14276;SDS011;7222;57.346;12.150;2022-08-03T11:50:41;14.63;;;12.47;;
14276;SDS011;7222;57.346;12.150;2022-08-03T11:53:13;18.70;;;13.03;;
14276;SDS011;7222;57.346;12.150;2022-08-03T11:55:42;14.90;;;11.37;;
14276;SDS011;7222;57.346;12.150;2022-08-03T11:58:18;14.53;;;10.57;;
14276;SDS011;7222;57.346;12.150;2022-08-03T12:00:46;14.77;;;11.90;;
14276;SDS011;7222;57.346;12.150;2022-08-03T12:03:14;15.77;;;11.50;;
14276;SDS011;7222;57.346;12.150;2022-08-03T12:05:44;13.70;;;10.57;;
14276;SDS011;7222;57.346;12.150;2022-08-03T12:08:13;15.27;;;10.93;;
14276;SDS011;7222;57.346;12.150;2022-08-03T12:10:45;16.40;;;10.67;;
14276;SDS011;7222;57.346;12.150;2022-08-03T12:13:14;14.70;;;10.73;;
14276;SDS011;7222;57.346;12.150;2022-08-03T12:15:48;12.97;;;10.43;;
14276;SDS011;7222;57.346;12.150;2022-08-03T12:18:20;15.33;;;10.87;;
14276;SDS011;7222;57.346;12.150;2022-08-03T12:20:49;14.73;;;9.80;;
14276;SDS011;7222;57.346;12.150;2022-08-03T12:23:17;11.30;;;9.80;;
14276;SDS011;7222;57.346;12.150;2022-08-03T12:25:45;14.10;;;9.83;;
14276;SDS011;7222;57.346;12.150;2022-08-03T12:28:14;13.90;;;9.90;;
14276;SDS011;7222;57.346;12.150;2022-08-03T12:30:44;11.27;;;9.57;;
14276;SDS011;7222;57.346;12.150;2022-08-03T12:33:17;14.27;;;10.33;;
14276;SDS011;7222;57.346;12.150;2022-08-03T12:35:47;13.60;;;10.00;;
14276;SDS011;7222;57.346;12.150;2022-08-03T12:38:19;13.13;;;9.27;;
14276;SDS011;7222;57.346;12.150;2022-08-03T12:41:00;12.17;;;9.37;;
14276;SDS011;7222;57.346;12.150;2022-08-03T12:43:29;13.43;;;9.23;;
14276;SDS011;7222;57.346;12.150;2022-08-03T12:46:08;13.00;;;9.90;;
14276;SDS011;7222;57.346;12.150;2022-08-03T12:51:26;12.23;;;9.13;;
14276;SDS011;7222;57.346;12.150;2022-08-03T12:53:54;12.57;;;8.93;;
14276;SDS011;7222;57.346;12.150;2022-08-03T12:56:22;15.47;;;9.33;;
14276;SDS011;7222;57.346;12.150;2022-08-03T12:58:49;14.17;;;9.33;;
14276;SDS011;7222;57.346;12.150;2022-08-03T13:01:18;11.30;;;9.20;;
14276;SDS011;7222;57.346;12.150;2022-08-03T13:03:48;11.43;;;9.20;;
14276;SDS011;7222;57.346;12.150;2022-08-03T13:06:17;16.00;;;9.10;;
14276;SDS011;7222;57.346;12.150;2022-08-03T13:08:45;12.37;;;8.90;;
14276;SDS011;7222;57.346;12.150;2022-08-03T13:11:16;12.23;;;10.00;;
14276;SDS011;7222;57.346;12.150;2022-08-03T13:13:44;15.70;;;10.53;;
14276;SDS011;7222;57.346;12.150;2022-08-03T13:16:11;10.33;;;7.80;;
14276;SDS011;7222;57.346;12.150;2022-08-03T13:18:40;12.57;;;8.90;;
14276;SDS011;7222;57.346;12.150;2022-08-03T13:21:07;11.53;;;9.80;;
14276;SDS011;7222;57.346;12.150;2022-08-03T13:23:34;15.80;;;9.90;;
14276;SDS011;7222;57.346;12.150;2022-08-03T13:26:01;11.97;;;8.77;;
14276;SDS011;7222;57.346;12.150;2022-08-03T13:28:28;16.13;;;10.50;;
14276;SDS011;7222;57.346;12.150;2022-08-03T13:30:56;15.33;;;9.17;;
14276;SDS011;7222;57.346;12.150;2022-08-03T13:33:23;15.50;;;9.53;;
14276;SDS011;7222;57.346;12.150;2022-08-03T13:35:53;11.77;;;9.63;;
14276;SDS011;7222;57.346;12.150;2022-08-03T13:38:20;13.20;;;9.93;;
14276;SDS011;7222;57.346;12.150;2022-08-03T13:40:47;16.03;;;9.03;;
14276;SDS011;7222;57.346;12.150;2022-08-03T13:43:16;16.67;;;9.70;;
14276;SDS011;7222;57.346;12.150;2022-08-03T13:45:43;14.87;;;9.40;;
14276;SDS011;7222;57.346;12.150;2022-08-03T13:48:10;13.07;;;9.27;;
14276;SDS011;7222;57.346;12.150;2022-08-03T13:50:37;14.47;;;8.93;;
14276;SDS011;7222;57.346;12.150;2022-08-03T13:53:05;14.37;;;9.20;;
14276;SDS011;7222;57.346;12.150;2022-08-03T13:55:32;13.50;;;8.83;;
14276;SDS011;7222;57.346;12.150;2022-08-03T13:58:00;14.17;;;8.33;;
14276;SDS011;7222;57.346;12.150;2022-08-03T14:00:27;11.90;;;8.27;;
14276;SDS011;7222;57.346;12.150;2022-08-03T14:02:55;13.57;;;8.37;;
14276;SDS011;7222;57.346;12.150;2022-08-03T14:05:22;13.80;;;8.20;;
14276;SDS011;7222;57.346;12.150;2022-08-03T14:07:49;13.73;;;7.80;;
14276;SDS011;7222;57.346;12.150;2022-08-03T14:10:18;14.10;;;8.17;;
14276;SDS011;7222;57.346;12.150;2022-08-03T14:12:45;11.97;;;7.77;;
14276;SDS011;7222;57.346;12.150;2022-08-03T14:15:12;10.20;;;7.10;;
14276;SDS011;7222;57.346;12.150;2022-08-03T14:17:39;13.87;;;7.40;;
14276;SDS011;7222;57.346;12.150;2022-08-03T14:20:07;14.97;;;7.27;;
14276;SDS011;7222;57.346;12.150;2022-08-03T14:22:36;10.30;;;7.00;;
14276;SDS011;7222;57.346;12.150;2022-08-03T14:25:04;8.97;;;6.33;;
14276;SDS011;7222;57.346;12.150;2022-08-03T14:27:33;13.93;;;6.80;;
14276;SDS011;7222;57.346;12.150;2022-08-03T14:30:01;10.00;;;6.50;;
14276;SDS011;7222;57.346;12.150;2022-08-03T14:32:28;12.13;;;7.20;;
14276;SDS011;7222;57.346;12.150;2022-08-03T14:34:55;10.50;;;6.80;;
14276;SDS011;7222;57.346;12.150;2022-08-03T14:37:23;11.63;;;6.50;;
14276;SDS011;7222;57.346;12.150;2022-08-03T14:39:50;10.57;;;6.60;;
14276;SDS011;7222;57.346;12.150;2022-08-03T14:42:17;11.43;;;6.27;;
14276;SDS011;7222;57.346;12.150;2022-08-03T14:44:45;10.00;;;6.10;;
14276;SDS011;7222;57.346;12.150;2022-08-03T14:47:13;10.70;;;6.20;;
14276;SDS011;7222;57.346;12.150;2022-08-03T14:49:40;10.53;;;6.07;;
14276;SDS011;7222;57.346;12.150;2022-08-03T14:52:07;10.03;;;5.90;;
14276;SDS011;7222;57.346;12.150;2022-08-03T14:54:34;11.97;;;5.60;;
14276;SDS011;7222;57.346;12.150;2022-08-03T14:57:02;11.23;;;5.50;;
14276;SDS011;7222;57.346;12.150;2022-08-03T14:59:29;9.40;;;5.03;;
14276;SDS011;7222;57.346;12.150;2022-08-03T15:01:57;10.17;;;5.10;;
14276;SDS011;7222;57.346;12.150;2022-08-03T15:04:24;8.27;;;4.90;;
14276;SDS011;7222;57.346;12.150;2022-08-03T15:06:51;8.83;;;5.03;;